Terminal Aerodrome Forecast
Issued by NWS Shreveport, LA

Home | Current Version | Previous Version | Text Only | Print | Product List | Glossary On
Versions: 1 2 3 4 5 6 7 8 9 10 11 12
000
FTUS44 KSHV 041128
TAFTXK
TAF
KTXK 041128Z 0412/0512 18006KT P6SM SCT060 SCT250
     FM041700 19010G16KT P6SM SCT050 SCT250
     FM050100 16006KT P6SM SCT060 SCT250=

USA.gov is the U.S. government's official web portal to all federal, state and local government web resources and services.